createdAt,value
2023-03-31T00:02:22.110Z,6.45
2023-03-31T00:05:03.637Z,6.42
2023-03-31T00:07:33.718Z,6.38
2023-03-31T00:10:17.113Z,6.35
2023-03-31T00:12:59.465Z,6.30
2023-03-31T00:15:46.218Z,6.30
2023-03-31T00:18:20.895Z,6.26
2023-03-31T00:20:49.390Z,6.24
2023-03-31T00:23:17.721Z,6.24
2023-03-31T00:26:07.299Z,6.22
2023-03-31T00:29:01.054Z,6.18
2023-03-31T00:32:09.929Z,6.08
2023-03-31T00:34:38.534Z,6.07
2023-03-31T00:37:18.685Z,6.03
2023-03-31T00:40:09.535Z,5.95
2023-03-31T00:42:51.207Z,5.89
2023-03-31T00:45:43.254Z,5.86
2023-03-31T00:48:18.451Z,5.83
2023-03-31T00:50:56.164Z,5.79
2023-03-31T00:53:29.316Z,5.75
2023-03-31T00:56:03.295Z,5.64
2023-03-31T00:58:34.830Z,5.55
2023-03-31T01:01:04.460Z,5.47
2023-03-31T01:03:33.639Z,5.43
2023-03-31T01:06:17.434Z,5.39
2023-03-31T01:08:50.207Z,5.37
2023-03-31T01:11:24.911Z,5.32
2023-03-31T01:13:57.082Z,5.23
2023-03-31T01:16:26.019Z,5.22
2023-03-31T01:18:57.738Z,5.21
2023-03-31T01:22:27.204Z,5.22
2023-03-31T01:25:17.076Z,5.16
2023-03-31T01:28:07.368Z,5.09
2023-03-31T01:31:05.494Z,5.01
2023-03-31T01:33:44.476Z,4.94
2023-03-31T01:36:50.589Z,4.88
2023-03-31T01:39:33.290Z,4.84
2023-03-31T01:42:31.121Z,4.79
2023-03-31T01:45:10.714Z,4.72
2023-03-31T01:48:21.465Z,4.70
2023-03-31T02:05:09.529Z,4.36
2023-03-31T02:08:36.859Z,4.34
2023-03-31T02:11:05.556Z,4.36
2023-03-31T02:13:45.555Z,4.39
2023-03-31T02:16:22.576Z,4.41
2023-03-31T02:19:04.088Z,4.43
2023-03-31T02:21:36.434Z,4.45
2023-03-31T02:24:16.017Z,4.48
2023-03-31T02:27:19.152Z,4.53
2023-03-31T02:29:48.472Z,4.59
2023-03-31T02:32:24.065Z,4.62
2023-03-31T02:34:55.784Z,4.65
2023-03-31T02:37:25.894Z,4.64
2023-03-31T02:39:58.865Z,4.59
2023-03-31T02:42:33.554Z,4.56
2023-03-31T02:45:05.371Z,4.53
2023-03-31T02:47:34.831Z,4.50
2023-03-31T02:50:06.527Z,4.49
2023-03-31T02:52:45.657Z,4.51
2023-03-31T02:55:37.782Z,4.51
2023-03-31T02:58:27.373Z,4.49
2023-03-31T03:01:23.882Z,4.49
2023-03-31T03:04:09.711Z,4.49
2023-03-31T03:07:16.170Z,4.49
2023-03-31T03:10:30.525Z,4.45
2023-03-31T03:13:31.905Z,4.37
2023-03-31T03:16:19.833Z,4.31
2023-03-31T03:19:02.375Z,4.30
2023-03-31T03:21:33.772Z,4.33
2023-03-31T03:24:07.058Z,4.36
2023-03-31T03:27:01.657Z,4.39
2023-03-31T03:29:48.186Z,4.41
2023-03-31T03:32:19.195Z,4.42
2023-03-31T03:34:48.099Z,4.40
2023-03-31T03:37:19.615Z,4.36
2023-03-31T03:39:48.594Z,4.33
2023-03-31T03:42:17.023Z,4.34
2023-03-31T03:44:45.562Z,4.35
2023-03-31T03:47:15.433Z,4.32
2023-03-31T03:49:43.871Z,4.27
2023-03-31T03:52:12.951Z,4.25
2023-03-31T03:54:42.514Z,4.24
2023-03-31T03:57:11.316Z,4.29
2023-03-31T03:59:40.130Z,4.34
2023-03-31T04:02:08.877Z,4.35
2023-03-31T04:04:37.774Z,4.39
2023-03-31T04:07:06.236Z,4.45
2023-03-31T04:09:37.660Z,4.47
2023-03-31T04:12:34.732Z,4.50
2023-03-31T04:15:05.097Z,4.50
2023-03-31T04:17:34.965Z,4.50
2023-03-31T04:20:11.659Z,4.52
2023-03-31T04:22:42.706Z,4.51
2023-03-31T04:25:19.938Z,4.45
2023-03-31T04:27:56.301Z,4.38
2023-03-31T04:30:31.166Z,4.35
2023-03-31T04:33:42.243Z,4.31
2023-03-31T04:37:13.062Z,4.28
2023-03-31T04:40:24.963Z,4.22
2023-03-31T04:43:17.850Z,4.21
2023-03-31T04:46:04.608Z,4.23
2023-03-31T04:48:37.917Z,4.25
2023-03-31T04:51:46.777Z,4.25
2023-03-31T04:55:39.748Z,4.23
2023-03-31T05:03:09.548Z,4.14
2023-03-31T05:07:20.219Z,4.11
2023-03-31T05:11:24.356Z,4.08
2023-03-31T05:13:53.300Z,4.05
2023-03-31T05:16:21.953Z,4.04
2023-03-31T05:18:50.123Z,4.02
2023-03-31T05:21:39.569Z,3.99
2023-03-31T05:24:08.766Z,3.94
2023-03-31T05:26:41.771Z,3.90
2023-03-31T05:29:31.970Z,3.87
2023-03-31T05:32:01.869Z,3.83
2023-03-31T05:35:08.647Z,3.81
2023-03-31T05:37:41.187Z,3.75
2023-03-31T05:40:11.627Z,3.70
2023-03-31T05:42:43.392Z,3.67
2023-03-31T05:45:15.152Z,3.67
2023-03-31T05:47:43.343Z,3.66
2023-03-31T05:50:14.653Z,3.65
2023-03-31T05:52:43.064Z,3.70
2023-03-31T05:55:13.421Z,3.77
2023-03-31T05:57:41.929Z,3.79
2023-03-31T06:00:11.578Z,3.81
2023-03-31T06:02:42.384Z,3.87
2023-03-31T06:05:11.058Z,3.96
2023-03-31T06:07:39.989Z,4.04
2023-03-31T06:10:10.853Z,4.12
2023-03-31T06:12:39.758Z,4.24
2023-03-31T06:15:10.095Z,4.35
2023-03-31T06:17:39.954Z,4.45
2023-03-31T06:20:26.423Z,4.51
2023-03-31T06:22:55.926Z,4.59
2023-03-31T06:25:24.831Z,4.68
2023-03-31T06:27:56.616Z,4.73
2023-03-31T06:30:41.719Z,4.79
2023-03-31T06:33:24.030Z,4.86
2023-03-31T06:35:57.918Z,4.95
2023-03-31T06:38:31.720Z,5.03
2023-03-31T06:41:23.212Z,5.11
2023-03-31T06:44:45.747Z,5.14
2023-03-31T06:47:19.846Z,5.20
2023-03-31T06:49:52.682Z,5.32
2023-03-31T06:52:41.372Z,5.44
2023-03-31T06:55:39.254Z,5.56
2023-03-31T06:58:53.871Z,5.64
2023-03-31T07:02:13.181Z,5.64
2023-03-31T07:05:30.716Z,5.66
2023-03-31T07:08:04.716Z,5.67
2023-03-31T07:10:35.932Z,5.68
2023-03-31T07:13:07.645Z,5.68
2023-03-31T07:15:39.081Z,5.67
2023-03-31T07:18:13.985Z,5.69
2023-03-31T07:20:45.645Z,5.67
2023-03-31T07:23:14.244Z,5.67
2023-03-31T07:26:26.924Z,5.66
2023-03-31T07:29:39.879Z,5.65
2023-03-31T07:32:11.880Z,5.61
2023-03-31T07:34:41.837Z,5.60
2023-03-31T07:37:11.014Z,5.63
2023-03-31T07:39:41.362Z,5.65
2023-03-31T07:42:10.740Z,5.67
2023-03-31T07:44:40.055Z,5.66
2023-03-31T07:47:09.384Z,5.62
2023-03-31T07:49:38.528Z,5.60
2023-03-31T07:52:07.793Z,5.60
2023-03-31T07:54:39.203Z,5.64
2023-03-31T07:57:09.579Z,5.70
2023-03-31T07:59:39.251Z,5.75
2023-03-31T08:02:08.614Z,5.80
2023-03-31T08:04:37.464Z,5.87
2023-03-31T08:07:08.118Z,5.95
2023-03-31T08:09:46.933Z,6.08
2023-03-31T08:12:18.019Z,6.20
2023-03-31T08:14:54.070Z,6.32
2023-03-31T08:17:25.220Z,6.43
2023-03-31T08:19:56.108Z,6.58
2023-03-31T08:22:28.779Z,6.73
2023-03-31T08:25:15.397Z,6.84
2023-03-31T08:27:44.895Z,6.93
2023-03-31T08:30:14.672Z,7.00
2023-03-31T08:32:43.541Z,7.07
2023-03-31T08:35:12.184Z,7.16
2023-03-31T08:37:41.391Z,7.26
2023-03-31T08:40:19.749Z,7.32
2023-03-31T08:43:06.296Z,7.39
2023-03-31T08:45:44.556Z,7.45
2023-03-31T08:48:25.773Z,7.51
2023-03-31T08:51:01.677Z,7.58
2023-03-31T08:53:33.312Z,7.66
2023-03-31T08:56:04.925Z,7.74
2023-03-31T08:58:42.810Z,7.93
2023-03-31T09:01:27.382Z,8.02
2023-03-31T09:04:08.320Z,8.15
2023-03-31T09:06:44.041Z,8.31
2023-03-31T09:09:42.068Z,8.38
2023-03-31T09:12:16.712Z,8.56
2023-03-31T09:14:54.322Z,8.78
2023-03-31T09:17:29.578Z,8.96
2023-03-31T09:20:08.367Z,9.02
2023-03-31T09:22:45.475Z,8.91
2023-03-31T09:25:31.596Z,8.78
2023-03-31T09:28:02.650Z,8.68
2023-03-31T09:30:34.304Z,8.61
2023-03-31T09:33:15.746Z,8.59
2023-03-31T09:35:46.469Z,8.62
2023-03-31T09:38:16.465Z,8.65
2023-03-31T09:40:45.153Z,8.66
2023-03-31T09:43:22.090Z,8.71
2023-03-31T09:46:08.680Z,8.82
2023-03-31T09:48:54.920Z,8.88
2023-03-31T09:51:30.653Z,8.98
2023-03-31T09:54:09.676Z,9.10
2023-03-31T09:56:52.917Z,9.20
2023-03-31T09:59:24.249Z,9.29
2023-03-31T10:01:59.006Z,9.41
2023-03-31T10:04:48.365Z,9.55
2023-03-31T10:07:23.636Z,9.72
2023-03-31T10:09:55.466Z,9.88
2023-03-31T10:12:28.653Z,10.08
2023-03-31T10:15:20.073Z,10.20
2023-03-31T10:20:49.053Z,10.38
2023-03-31T10:23:19.210Z,10.53
2023-03-31T10:25:48.126Z,10.74
2023-03-31T10:28:21.057Z,11.06
2023-03-31T10:30:53.018Z,11.38
2023-03-31T10:33:27.728Z,11.55
2023-03-31T10:35:59.683Z,11.63
2023-03-31T10:38:40.931Z,11.63
2023-03-31T10:41:31.366Z,11.53
2023-03-31T10:44:04.839Z,11.48
2023-03-31T10:46:46.678Z,11.46
2023-03-31T10:49:39.609Z,11.51
2023-03-31T10:52:20.893Z,11.67
2023-03-31T10:54:55.183Z,11.92
2023-03-31T10:57:58.219Z,12.10
2023-03-31T11:00:51.743Z,12.33
2023-03-31T11:03:32.391Z,12.39
2023-03-31T11:06:13.193Z,12.45
2023-03-31T11:08:58.770Z,12.55
2023-03-31T11:11:41.774Z,12.61
2023-03-31T11:14:22.979Z,12.69
2023-03-31T11:17:56.205Z,12.77
2023-03-31T11:21:01.965Z,12.76
2023-03-31T11:23:43.330Z,12.88
2023-03-31T11:26:17.368Z,12.96
2023-03-31T11:29:25.492Z,12.87
2023-03-31T11:32:03.913Z,12.91
2023-03-31T11:34:50.815Z,12.95
2023-03-31T11:37:25.291Z,12.79
2023-03-31T11:40:16.892Z,12.68
2023-03-31T11:42:57.416Z,12.75
2023-03-31T11:45:34.808Z,12.71
2023-03-31T11:48:15.036Z,12.61
2023-03-31T11:50:47.726Z,12.52
2023-03-31T11:53:21.224Z,12.45
2023-03-31T11:55:54.315Z,12.61
2023-03-31T11:58:45.685Z,12.83
2023-03-31T12:01:18.326Z,12.87
2023-03-31T12:04:15.884Z,12.83
2023-03-31T12:06:47.998Z,12.94
2023-03-31T12:09:24.041Z,13.09
2023-03-31T12:12:14.514Z,13.23
2023-03-31T12:15:15.899Z,13.17
2023-03-31T12:18:12.994Z,13.13
2023-03-31T12:20:48.133Z,13.28
2023-03-31T12:23:24.654Z,13.37
2023-03-31T12:26:12.923Z,13.38
2023-03-31T12:28:49.932Z,13.47
2023-03-31T12:31:25.811Z,13.66
2023-03-31T12:34:24.732Z,13.78
2023-03-31T12:37:34.704Z,13.91
2023-03-31T12:40:16.730Z,14.18
2023-03-31T12:42:52.658Z,14.38
2023-03-31T12:45:34.713Z,14.41
2023-03-31T12:48:27.843Z,14.41
2023-03-31T12:51:16.308Z,14.28
2023-03-31T12:54:04.017Z,14.17
2023-03-31T12:57:00.909Z,13.93
2023-03-31T12:59:42.141Z,13.76
2023-03-31T13:02:25.693Z,13.73
2023-03-31T13:04:54.870Z,13.64
2023-03-31T13:07:29.147Z,13.50
2023-03-31T13:10:22.047Z,13.30
2023-03-31T13:13:15.180Z,13.17
2023-03-31T13:16:10.005Z,13.10
2023-03-31T13:18:43.934Z,13.03
2023-03-31T13:21:13.128Z,12.85
2023-03-31T13:23:46.781Z,12.73
2023-03-31T13:26:46.795Z,12.81
2023-03-31T13:29:28.867Z,12.95
2023-03-31T13:32:00.501Z,13.07
2023-03-31T13:34:34.174Z,13.06
2023-03-31T13:37:24.267Z,12.98
2023-03-31T13:40:15.201Z,12.89
2023-03-31T13:43:09.246Z,12.88
2023-03-31T13:45:45.162Z,12.87
2023-03-31T13:48:36.965Z,12.96
2023-03-31T13:51:19.599Z,13.00
2023-03-31T13:54:00.373Z,12.88
2023-03-31T13:57:20.241Z,12.71
2023-03-31T14:00:21.764Z,12.58
2023-03-31T14:03:05.290Z,12.56
2023-03-31T14:05:45.077Z,12.54
2023-03-31T14:08:31.129Z,12.50
2023-03-31T14:11:23.324Z,12.48
2023-03-31T14:14:13.599Z,12.48
2023-03-31T14:16:48.773Z,12.50
2023-03-31T14:19:54.874Z,12.53
2023-03-31T14:22:41.957Z,12.59
2023-03-31T14:25:28.758Z,12.60
2023-03-31T14:27:58.905Z,12.53
2023-03-31T14:30:47.341Z,12.47
2023-03-31T14:33:22.730Z,12.58
2023-03-31T14:36:08.437Z,12.62
2023-03-31T14:38:37.822Z,12.56
2023-03-31T14:41:06.434Z,12.47
2023-03-31T14:43:40.572Z,12.36
2023-03-31T14:46:10.533Z,12.25
2023-03-31T14:48:47.319Z,12.22
2023-03-31T14:51:18.125Z,12.25
2023-03-31T14:53:46.549Z,12.29
2023-03-31T14:56:20.844Z,12.27
2023-03-31T14:58:53.179Z,12.21
2023-03-31T15:01:28.364Z,12.24
2023-03-31T15:03:57.115Z,12.30
2023-03-31T15:06:26.648Z,12.37
2023-03-31T15:08:58.707Z,12.44
2023-03-31T15:11:28.931Z,12.46
2023-03-31T15:14:04.988Z,12.39
2023-03-31T15:16:47.106Z,12.30
2023-03-31T15:19:16.371Z,12.19
2023-03-31T15:21:46.400Z,12.05
2023-03-31T15:24:17.560Z,11.89
2023-03-31T15:26:52.289Z,11.76
2023-03-31T15:29:26.987Z,11.69
2023-03-31T15:31:58.483Z,11.66
2023-03-31T15:34:33.491Z,11.67
2023-03-31T15:37:01.985Z,11.68
2023-03-31T15:39:33.479Z,11.70
2023-03-31T15:42:07.675Z,11.67
2023-03-31T15:44:44.011Z,11.60
2023-03-31T15:47:19.503Z,11.54
2023-03-31T15:50:10.172Z,11.40
2023-03-31T15:52:46.343Z,11.33
2023-03-31T15:55:24.299Z,11.29
2023-03-31T15:57:53.658Z,11.25
2023-03-31T16:00:38.545Z,11.23
2023-03-31T16:03:26.803Z,11.21
2023-03-31T16:05:58.037Z,11.18
2023-03-31T16:11:49.208Z,11.02
2023-03-31T16:13:34.790Z,11.11
2023-03-31T16:14:29.746Z,10.95
2023-03-31T16:17:06.476Z,10.86
2023-03-31T16:19:49.920Z,10.78
2023-03-31T16:22:26.210Z,10.71
2023-03-31T16:25:00.734Z,10.69
2023-03-31T16:27:28.978Z,10.63
2023-03-31T16:30:12.676Z,10.56
2023-03-31T16:33:03.041Z,10.53
2023-03-31T16:35:40.105Z,10.54
2023-03-31T16:38:11.277Z,10.58
2023-03-31T16:40:43.364Z,10.57
2023-03-31T16:43:20.250Z,10.47
2023-03-31T16:45:49.433Z,10.37
2023-03-31T16:48:19.857Z,10.30
2023-03-31T16:50:49.872Z,10.27
2023-03-31T16:53:22.486Z,10.23
2023-03-31T16:55:51.235Z,10.19
2023-03-31T16:58:19.629Z,10.14
2023-03-31T17:00:48.228Z,10.10
2023-03-31T17:03:17.038Z,10.05
2023-03-31T17:05:53.274Z,10.02
2023-03-31T17:08:23.744Z,9.97
2023-03-31T17:10:56.253Z,9.90
2023-03-31T17:13:24.273Z,9.83
2023-03-31T17:16:01.422Z,9.75
2023-03-31T17:18:36.814Z,9.68
2023-03-31T17:21:10.209Z,9.60
2023-03-31T17:23:39.527Z,9.53
2023-03-31T17:26:15.590Z,9.47
2023-03-31T17:28:44.090Z,9.43
2023-03-31T17:31:18.848Z,9.31
2023-03-31T17:33:47.808Z,9.22
2023-03-31T17:36:16.860Z,9.16
2023-03-31T17:38:45.958Z,9.14
2023-03-31T17:41:14.397Z,9.09
2023-03-31T17:43:46.953Z,9.04
2023-03-31T17:46:15.662Z,8.97
2023-03-31T17:48:44.840Z,8.92
2023-03-31T17:51:16.270Z,8.86
2023-03-31T17:53:47.034Z,8.79
2023-03-31T17:56:16.550Z,8.70
2023-03-31T17:58:46.448Z,8.64
2023-03-31T18:01:15.092Z,8.58
2023-03-31T18:03:45.154Z,8.53
2023-03-31T18:06:14.942Z,8.49
2023-03-31T18:08:43.006Z,8.45
2023-03-31T18:11:11.969Z,8.43
2023-03-31T18:13:40.676Z,8.42
2023-03-31T18:16:10.195Z,8.41
2023-03-31T18:18:39.557Z,8.42
2023-03-31T18:21:10.366Z,8.46
2023-03-31T18:23:39.421Z,8.49
2023-03-31T18:26:09.652Z,8.52
2023-03-31T18:28:40.261Z,8.54
2023-03-31T18:31:09.475Z,8.55
2023-03-31T18:33:37.786Z,8.56
2023-03-31T18:36:07.584Z,8.57
2023-03-31T18:38:37.201Z,8.57
2023-03-31T18:41:05.986Z,8.58
2023-03-31T18:43:34.645Z,8.58
2023-03-31T18:46:03.103Z,8.58
2023-03-31T18:48:32.464Z,8.58
2023-03-31T18:51:00.942Z,8.57
2023-03-31T18:53:31.460Z,8.57
2023-03-31T18:56:00.471Z,8.55
2023-03-31T18:58:30.512Z,8.55
2023-03-31T19:00:59.650Z,8.55
2023-03-31T19:03:28.686Z,8.54
2023-03-31T19:06:02.752Z,8.53
2023-03-31T19:08:31.968Z,8.52
2023-03-31T19:11:09.966Z,8.52
2023-03-31T19:13:39.314Z,8.54
2023-03-31T19:16:07.618Z,8.55
2023-03-31T19:18:36.691Z,8.55
2023-03-31T19:21:05.221Z,8.56
2023-03-31T19:23:34.338Z,8.58
2023-03-31T19:26:03.222Z,8.59
2023-03-31T19:28:31.740Z,8.59
2023-03-31T19:31:04.462Z,8.59
2023-03-31T19:33:33.633Z,8.60
2023-03-31T19:36:02.936Z,8.60
2023-03-31T19:38:36.692Z,8.61
2023-03-31T19:41:06.286Z,8.62
2023-03-31T19:43:34.511Z,8.65
2023-03-31T19:46:03.364Z,8.67
2023-03-31T19:48:34.010Z,8.71
2023-03-31T19:51:08.647Z,8.73
2023-03-31T19:53:38.349Z,8.74
2023-03-31T19:56:10.358Z,8.75
2023-03-31T19:58:40.230Z,8.74
2023-03-31T20:01:16.000Z,8.70
2023-03-31T20:03:44.759Z,8.68
2023-03-31T20:06:14.981Z,8.65
2023-03-31T20:08:44.145Z,8.63
2023-03-31T20:11:15.729Z,8.62
2023-03-31T20:13:47.927Z,8.63
2023-03-31T20:16:20.382Z,8.61
2023-03-31T20:18:58.930Z,8.57
2023-03-31T20:21:30.415Z,8.55
2023-03-31T20:23:59.596Z,8.53
2023-03-31T20:26:30.185Z,8.51
2023-03-31T20:29:02.828Z,8.50
2023-03-31T20:31:36.614Z,8.51
2023-03-31T20:34:12.587Z,8.52
2023-03-31T20:36:44.467Z,8.52
2023-03-31T20:39:15.311Z,8.53
2023-03-31T20:41:45.101Z,8.53
2023-03-31T20:44:16.038Z,8.53
2023-03-31T20:46:45.773Z,8.52
2023-03-31T20:49:15.051Z,8.53
2023-03-31T20:51:45.431Z,8.54
2023-03-31T20:54:14.531Z,8.55
2023-03-31T20:56:44.296Z,8.57
2023-03-31T20:59:15.846Z,8.60
2023-03-31T21:01:47.471Z,8.63
2023-03-31T21:04:17.123Z,8.67
2023-03-31T21:06:47.763Z,8.71
2023-03-31T21:09:16.837Z,8.74
2023-03-31T21:11:46.188Z,8.77
2023-03-31T21:14:16.573Z,8.80
2023-03-31T21:16:45.408Z,8.83
2023-03-31T21:19:14.322Z,8.85
2023-03-31T21:21:43.560Z,8.88
2023-03-31T21:24:12.897Z,8.91
2023-03-31T21:26:41.185Z,8.94
2023-03-31T21:29:11.572Z,8.98
2023-03-31T21:31:42.219Z,9.01
2023-03-31T21:34:11.365Z,9.02
2023-03-31T21:36:40.093Z,9.05
2023-03-31T21:39:09.910Z,9.06
2023-03-31T21:41:40.841Z,9.07
2023-03-31T21:44:13.623Z,9.06
2023-03-31T21:46:45.192Z,9.05
2023-03-31T21:49:16.702Z,9.04
2023-03-31T21:51:46.293Z,8.99
2023-03-31T21:54:14.459Z,8.93
2023-03-31T21:56:42.570Z,8.87
2023-03-31T21:59:11.182Z,8.80
2023-03-31T22:01:39.686Z,8.74
2023-03-31T22:04:09.447Z,8.70
2023-03-31T22:06:53.650Z,8.69
2023-03-31T22:09:21.904Z,8.64
2023-03-31T22:11:51.570Z,8.61
2023-03-31T22:14:19.739Z,8.60
2023-03-31T22:16:47.835Z,8.60
2023-03-31T22:19:17.140Z,8.59
2023-03-31T22:21:47.379Z,8.59
2023-03-31T22:24:15.883Z,8.58
2023-03-31T22:26:44.000Z,8.58
2023-03-31T22:29:16.375Z,8.57
2023-03-31T22:31:44.633Z,8.56
2023-03-31T22:34:13.565Z,8.55
2023-03-31T22:36:42.128Z,8.54
2023-03-31T22:39:10.527Z,8.55
2023-03-31T22:41:38.637Z,8.57
2023-03-31T22:44:07.326Z,8.60
2023-03-31T22:46:36.422Z,8.61
2023-03-31T22:49:05.183Z,8.60
2023-03-31T22:51:36.143Z,8.59
2023-03-31T22:54:04.213Z,8.60
2023-03-31T22:56:32.406Z,8.62
2023-03-31T22:59:03.213Z,8.65
2023-03-31T23:01:31.530Z,8.68
2023-03-31T23:04:01.148Z,8.71
2023-03-31T23:06:32.743Z,8.72
2023-03-31T23:09:02.471Z,8.71
2023-03-31T23:11:31.698Z,8.72
2023-03-31T23:13:59.848Z,8.74
2023-03-31T23:16:27.954Z,8.79
2023-03-31T23:18:56.163Z,8.85
2023-03-31T23:21:27.488Z,8.90
2023-03-31T23:23:58.782Z,8.89
2023-03-31T23:26:28.000Z,8.84
2023-03-31T23:28:56.590Z,8.81
2023-03-31T23:31:27.706Z,8.81
2023-03-31T23:33:58.238Z,8.84
2023-03-31T23:36:26.822Z,8.84
2023-03-31T23:38:57.768Z,8.82
2023-03-31T23:41:26.545Z,8.83
2023-03-31T23:43:55.977Z,8.81
2023-03-31T23:46:26.260Z,8.79
2023-03-31T23:48:54.638Z,8.76
2023-03-31T23:51:23.828Z,8.75
2023-03-31T23:53:52.481Z,8.73
2023-03-31T23:56:20.626Z,8.66
2023-03-31T23:58:48.833Z,8.60
